sensor_id;sensor_type;location;lat;lon;timestamp;P1;durP1;ratioP1;P2;durP2;ratioP2
31906;SDS011;18455;50.858;13.662;2023-06-14T00:03:54;7.13;;;4.33;;
31906;SDS011;18455;50.858;13.662;2023-06-14T00:08:56;6.97;;;4.57;;
31906;SDS011;18455;50.858;13.662;2023-06-14T00:13:56;14.73;;;4.90;;
31906;SDS011;18455;50.858;13.662;2023-06-14T00:18:56;7.03;;;4.33;;
31906;SDS011;18455;50.858;13.662;2023-06-14T00:23:57;8.23;;;4.80;;
31906;SDS011;18455;50.858;13.662;2023-06-14T00:28:58;6.30;;;4.63;;
31906;SDS011;18455;50.858;13.662;2023-06-14T00:34:00;5.80;;;4.60;;
31906;SDS011;18455;50.858;13.662;2023-06-14T00:39:00;8.20;;;5.03;;
31906;SDS011;18455;50.858;13.662;2023-06-14T00:44:01;5.53;;;4.13;;
31906;SDS011;18455;50.858;13.662;2023-06-14T00:49:01;10.53;;;4.43;;
31906;SDS011;18455;50.858;13.662;2023-06-14T00:54:01;7.13;;;4.87;;
31906;SDS011;18455;50.858;13.662;2023-06-14T00:59:02;11.07;;;4.83;;
31906;SDS011;18455;50.858;13.662;2023-06-14T01:04:02;7.83;;;5.57;;
31906;SDS011;18455;50.858;13.662;2023-06-14T01:09:06;6.13;;;5.43;;
31906;SDS011;18455;50.858;13.662;2023-06-14T01:14:27;7.33;;;5.13;;
31906;SDS011;18455;50.858;13.662;2023-06-14T01:19:28;9.33;;;6.30;;
31906;SDS011;18455;50.858;13.662;2023-06-14T01:24:29;7.20;;;5.33;;
31906;SDS011;18455;50.858;13.662;2023-06-14T01:29:32;12.23;;;5.57;;
31906;SDS011;18455;50.858;13.662;2023-06-14T01:34:33;11.67;;;5.63;;
31906;SDS011;18455;50.858;13.662;2023-06-14T01:39:33;6.97;;;5.33;;
31906;SDS011;18455;50.858;13.662;2023-06-14T01:44:34;12.10;;;5.87;;
31906;SDS011;18455;50.858;13.662;2023-06-14T01:49:35;6.97;;;5.57;;
31906;SDS011;18455;50.858;13.662;2023-06-14T01:54:35;11.00;;;5.63;;
31906;SDS011;18455;50.858;13.662;2023-06-14T01:59:37;9.03;;;5.73;;
31906;SDS011;18455;50.858;13.662;2023-06-14T02:04:38;7.13;;;5.40;;
31906;SDS011;18455;50.858;13.662;2023-06-14T02:09:38;8.10;;;6.20;;
31906;SDS011;18455;50.858;13.662;2023-06-14T02:14:39;9.47;;;5.90;;
31906;SDS011;18455;50.858;13.662;2023-06-14T02:19:39;7.00;;;5.17;;
31906;SDS011;18455;50.858;13.662;2023-06-14T02:24:41;10.30;;;5.50;;
31906;SDS011;18455;50.858;13.662;2023-06-14T02:29:42;5.40;;;4.90;;
31906;SDS011;18455;50.858;13.662;2023-06-14T02:34:42;8.90;;;5.23;;
31906;SDS011;18455;50.858;13.662;2023-06-14T02:39:43;10.43;;;5.33;;
31906;SDS011;18455;50.858;13.662;2023-06-14T02:44:43;6.43;;;4.90;;
31906;SDS011;18455;50.858;13.662;2023-06-14T02:49:45;10.70;;;5.17;;
31906;SDS011;18455;50.858;13.662;2023-06-14T02:54:48;8.77;;;5.13;;
31906;SDS011;18455;50.858;13.662;2023-06-14T02:59:49;7.03;;;6.00;;
31906;SDS011;18455;50.858;13.662;2023-06-14T03:04:50;10.20;;;6.43;;
31906;SDS011;18455;50.858;13.662;2023-06-14T03:09:53;7.23;;;6.50;;
31906;SDS011;18455;50.858;13.662;2023-06-14T03:14:54;10.93;;;5.67;;
31906;SDS011;18455;50.858;13.662;2023-06-14T03:19:57;7.17;;;5.87;;
31906;SDS011;18455;50.858;13.662;2023-06-14T03:24:59;5.37;;;4.87;;
31906;SDS011;18455;50.858;13.662;2023-06-14T03:29:59;5.70;;;5.07;;
31906;SDS011;18455;50.858;13.662;2023-06-14T03:35:00;7.10;;;4.80;;
31906;SDS011;18455;50.858;13.662;2023-06-14T03:40:01;5.87;;;5.03;;
31906;SDS011;18455;50.858;13.662;2023-06-14T03:45:08;8.10;;;5.17;;
31906;SDS011;18455;50.858;13.662;2023-06-14T03:50:08;5.97;;;4.70;;
31906;SDS011;18455;50.858;13.662;2023-06-14T03:55:09;8.70;;;5.43;;
31906;SDS011;18455;50.858;13.662;2023-06-14T04:00:12;7.53;;;4.87;;
31906;SDS011;18455;50.858;13.662;2023-06-14T04:05:15;7.63;;;5.90;;
31906;SDS011;18455;50.858;13.662;2023-06-14T04:10:20;11.07;;;6.27;;
31906;SDS011;18455;50.858;13.662;2023-06-14T04:15:20;7.67;;;4.70;;
31906;SDS011;18455;50.858;13.662;2023-06-14T04:20:21;7.53;;;5.20;;
31906;SDS011;18455;50.858;13.662;2023-06-14T04:25:22;8.40;;;5.23;;
31906;SDS011;18455;50.858;13.662;2023-06-14T04:30:23;7.13;;;5.00;;
31906;SDS011;18455;50.858;13.662;2023-06-14T04:35:26;6.30;;;4.73;;
31906;SDS011;18455;50.858;13.662;2023-06-14T04:40:29;6.67;;;4.70;;
31906;SDS011;18455;50.858;13.662;2023-06-14T04:45:30;8.27;;;5.07;;
31906;SDS011;18455;50.858;13.662;2023-06-14T04:50:32;6.60;;;4.53;;
31906;SDS011;18455;50.858;13.662;2023-06-14T04:55:33;7.90;;;4.93;;
31906;SDS011;18455;50.858;13.662;2023-06-14T05:00:35;9.03;;;4.80;;
31906;SDS011;18455;50.858;13.662;2023-06-14T05:05:36;9.00;;;5.10;;
31906;SDS011;18455;50.858;13.662;2023-06-14T05:10:37;5.97;;;4.87;;
31906;SDS011;18455;50.858;13.662;2023-06-14T05:15:37;8.77;;;4.90;;
31906;SDS011;18455;50.858;13.662;2023-06-14T05:20:38;8.93;;;5.17;;
31906;SDS011;18455;50.858;13.662;2023-06-14T05:25:38;8.97;;;5.20;;
31906;SDS011;18455;50.858;13.662;2023-06-14T05:30:38;5.87;;;4.63;;
31906;SDS011;18455;50.858;13.662;2023-06-14T05:35:40;5.20;;;4.30;;
31906;SDS011;18455;50.858;13.662;2023-06-14T05:40:40;5.47;;;4.97;;
31906;SDS011;18455;50.858;13.662;2023-06-14T05:45:40;6.20;;;4.60;;
31906;SDS011;18455;50.858;13.662;2023-06-14T05:50:41;9.52;;;4.63;;
31906;SDS011;18455;50.858;13.662;2023-06-14T05:55:41;8.13;;;5.27;;
31906;SDS011;18455;50.858;13.662;2023-06-14T06:00:41;10.50;;;5.50;;
31906;SDS011;18455;50.858;13.662;2023-06-14T06:05:42;8.10;;;5.45;;
31906;SDS011;18455;50.858;13.662;2023-06-14T06:10:42;7.43;;;5.28;;
31906;SDS011;18455;50.858;13.662;2023-06-14T06:15:43;8.57;;;5.00;;
31906;SDS011;18455;50.858;13.662;2023-06-14T06:20:43;5.70;;;4.70;;
31906;SDS011;18455;50.858;13.662;2023-06-14T06:25:44;5.85;;;3.97;;
31906;SDS011;18455;50.858;13.662;2023-06-14T06:30:44;6.18;;;5.13;;
31906;SDS011;18455;50.858;13.662;2023-06-14T06:35:45;7.95;;;4.65;;
31906;SDS011;18455;50.858;13.662;2023-06-14T06:40:45;6.72;;;4.00;;
31906;SDS011;18455;50.858;13.662;2023-06-14T06:45:47;6.53;;;3.78;;
31906;SDS011;18455;50.858;13.662;2023-06-14T06:50:47;8.63;;;4.45;;
31906;SDS011;18455;50.858;13.662;2023-06-14T06:55:48;6.15;;;4.57;;
31906;SDS011;18455;50.858;13.662;2023-06-14T07:00:48;6.15;;;4.50;;
31906;SDS011;18455;50.858;13.662;2023-06-14T07:05:49;5.95;;;4.30;;
31906;SDS011;18455;50.858;13.662;2023-06-14T07:10:49;6.85;;;3.78;;
31906;SDS011;18455;50.858;13.662;2023-06-14T07:15:49;4.38;;;3.67;;
31906;SDS011;18455;50.858;13.662;2023-06-14T07:20:53;5.45;;;3.58;;
31906;SDS011;18455;50.858;13.662;2023-06-14T07:25:54;5.72;;;3.05;;
31906;SDS011;18455;50.858;13.662;2023-06-14T07:30:54;7.55;;;3.67;;
31906;SDS011;18455;50.858;13.662;2023-06-14T07:35:54;7.53;;;3.05;;
31906;SDS011;18455;50.858;13.662;2023-06-14T07:40:55;4.00;;;3.30;;
31906;SDS011;18455;50.858;13.662;2023-06-14T07:45:55;6.45;;;3.30;;
31906;SDS011;18455;50.858;13.662;2023-06-14T07:50:57;5.20;;;3.67;;
31906;SDS011;18455;50.858;13.662;2023-06-14T07:55:57;3.75;;;3.10;;
31906;SDS011;18455;50.858;13.662;2023-06-14T08:00:57;4.13;;;3.47;;
31906;SDS011;18455;50.858;13.662;2023-06-14T08:05:58;3.90;;;3.50;;
31906;SDS011;18455;50.858;13.662;2023-06-14T08:10:58;5.20;;;3.40;;
31906;SDS011;18455;50.858;13.662;2023-06-14T08:15:59;5.82;;;3.40;;
31906;SDS011;18455;50.858;13.662;2023-06-14T08:21:01;6.35;;;3.03;;
31906;SDS011;18455;50.858;13.662;2023-06-14T08:26:02;3.22;;;2.85;;
31906;SDS011;18455;50.858;13.662;2023-06-14T08:31:04;3.88;;;2.58;;
31906;SDS011;18455;50.858;13.662;2023-06-14T08:36:05;4.10;;;3.15;;
31906;SDS011;18455;50.858;13.662;2023-06-14T08:41:05;4.25;;;3.13;;
31906;SDS011;18455;50.858;13.662;2023-06-14T08:46:06;7.10;;;3.28;;
31906;SDS011;18455;50.858;13.662;2023-06-14T08:51:08;4.65;;;3.42;;
31906;SDS011;18455;50.858;13.662;2023-06-14T08:56:09;4.85;;;3.25;;
31906;SDS011;18455;50.858;13.662;2023-06-14T09:01:13;4.80;;;3.30;;
31906;SDS011;18455;50.858;13.662;2023-06-14T09:06:14;4.75;;;4.25;;
31906;SDS011;18455;50.858;13.662;2023-06-14T09:11:16;4.28;;;3.40;;
31906;SDS011;18455;50.858;13.662;2023-06-14T09:16:18;5.82;;;3.22;;
31906;SDS011;18455;50.858;13.662;2023-06-14T09:21:19;6.60;;;3.53;;
31906;SDS011;18455;50.858;13.662;2023-06-14T09:26:20;4.28;;;3.33;;
31906;SDS011;18455;50.858;13.662;2023-06-14T09:31:23;4.00;;;2.30;;
31906;SDS011;18455;50.858;13.662;2023-06-14T09:36:24;6.13;;;2.75;;
31906;SDS011;18455;50.858;13.662;2023-06-14T09:41:32;2.88;;;2.20;;
31906;SDS011;18455;50.858;13.662;2023-06-14T09:46:33;2.63;;;2.40;;
31906;SDS011;18455;50.858;13.662;2023-06-14T09:51:34;5.40;;;2.58;;
31906;SDS011;18455;50.858;13.662;2023-06-14T09:56:41;4.15;;;2.40;;
31906;SDS011;18455;50.858;13.662;2023-06-14T10:01:42;5.28;;;2.33;;
31906;SDS011;18455;50.858;13.662;2023-06-14T10:06:45;6.95;;;2.70;;
31906;SDS011;18455;50.858;13.662;2023-06-14T10:11:50;5.38;;;2.45;;
31906;SDS011;18455;50.858;13.662;2023-06-14T10:17:01;3.97;;;2.40;;
31906;SDS011;18455;50.858;13.662;2023-06-14T10:22:09;3.13;;;2.58;;
31906;SDS011;18455;50.858;13.662;2023-06-14T10:27:14;3.35;;;2.42;;
31906;SDS011;18455;50.858;13.662;2023-06-14T10:38:39;3.47;;;2.72;;
31906;SDS011;18455;50.858;13.662;2023-06-14T10:43:40;4.30;;;3.40;;
31906;SDS011;18455;50.858;13.662;2023-06-14T10:48:44;3.45;;;3.13;;
31906;SDS011;18455;50.858;13.662;2023-06-14T10:53:45;4.85;;;2.78;;
31906;SDS011;18455;50.858;13.662;2023-06-14T10:58:45;3.35;;;3.00;;
31906;SDS011;18455;50.858;13.662;2023-06-14T11:03:52;5.82;;;3.30;;
31906;SDS011;18455;50.858;13.662;2023-06-14T11:09:08;3.60;;;2.78;;
31906;SDS011;18455;50.858;13.662;2023-06-14T11:14:19;3.25;;;2.88;;
31906;SDS011;18455;50.858;13.662;2023-06-14T11:19:19;3.28;;;2.97;;
31906;SDS011;18455;50.858;13.662;2023-06-14T11:24:21;4.13;;;2.63;;
31906;SDS011;18455;50.858;13.662;2023-06-14T11:29:22;4.07;;;3.05;;
31906;SDS011;18455;50.858;13.662;2023-06-14T11:34:22;2.45;;;2.20;;
31906;SDS011;18455;50.858;13.662;2023-06-14T11:39:25;3.70;;;2.80;;
31906;SDS011;18455;50.858;13.662;2023-06-14T11:44:27;2.83;;;2.53;;
31906;SDS011;18455;50.858;13.662;2023-06-14T11:49:28;3.22;;;2.20;;
31906;SDS011;18455;50.858;13.662;2023-06-14T11:54:28;2.90;;;2.50;;
31906;SDS011;18455;50.858;13.662;2023-06-14T11:59:28;2.50;;;2.30;;
31906;SDS011;18455;50.858;13.662;2023-06-14T12:04:31;3.50;;;2.40;;
31906;SDS011;18455;50.858;13.662;2023-06-14T12:09:31;2.58;;;2.38;;
31906;SDS011;18455;50.858;13.662;2023-06-14T12:14:32;3.40;;;2.45;;
31906;SDS011;18455;50.858;13.662;2023-06-14T12:19:33;2.55;;;2.35;;
31906;SDS011;18455;50.858;13.662;2023-06-14T12:24:33;6.20;;;2.90;;
31906;SDS011;18455;50.858;13.662;2023-06-14T12:29:34;3.55;;;2.75;;
31906;SDS011;18455;50.858;13.662;2023-06-14T12:34:35;4.13;;;3.28;;
31906;SDS011;18455;50.858;13.662;2023-06-14T12:39:35;4.90;;;3.20;;
31906;SDS011;18455;50.858;13.662;2023-06-14T12:44:38;6.55;;;3.17;;
31906;SDS011;18455;50.858;13.662;2023-06-14T12:49:40;3.33;;;2.90;;
31906;SDS011;18455;50.858;13.662;2023-06-14T12:54:41;5.13;;;2.95;;
31906;SDS011;18455;50.858;13.662;2023-06-14T12:59:41;5.50;;;2.42;;
31906;SDS011;18455;50.858;13.662;2023-06-14T13:04:41;3.05;;;2.50;;
31906;SDS011;18455;50.858;13.662;2023-06-14T13:09:42;5.28;;;3.28;;
31906;SDS011;18455;50.858;13.662;2023-06-14T13:14:43;5.28;;;3.35;;
31906;SDS011;18455;50.858;13.662;2023-06-14T13:19:44;4.57;;;3.40;;
31906;SDS011;18455;50.858;13.662;2023-06-14T13:24:44;3.88;;;3.40;;
31906;SDS011;18455;50.858;13.662;2023-06-14T13:29:44;5.00;;;3.10;;
31906;SDS011;18455;50.858;13.662;2023-06-14T13:34:45;4.28;;;3.80;;
31906;SDS011;18455;50.858;13.662;2023-06-14T13:39:45;2.40;;;2.20;;
31906;SDS011;18455;50.858;13.662;2023-06-14T13:44:49;2.80;;;2.10;;
31906;SDS011;18455;50.858;13.662;2023-06-14T13:49:51;2.70;;;2.50;;
31906;SDS011;18455;50.858;13.662;2023-06-14T13:54:52;2.63;;;1.93;;
31906;SDS011;18455;50.858;13.662;2023-06-14T13:59:52;2.45;;;2.25;;
31906;SDS011;18455;50.858;13.662;2023-06-14T14:05:12;2.72;;;2.53;;
31906;SDS011;18455;50.858;13.662;2023-06-14T14:10:15;2.55;;;2.30;;
31906;SDS011;18455;50.858;13.662;2023-06-14T14:15:16;5.47;;;3.00;;
31906;SDS011;18455;50.858;13.662;2023-06-14T14:20:17;3.85;;;3.00;;
31906;SDS011;18455;50.858;13.662;2023-06-14T14:25:17;4.43;;;3.00;;
31906;SDS011;18455;50.858;13.662;2023-06-14T14:30:17;3.10;;;2.47;;
31906;SDS011;18455;50.858;13.662;2023-06-14T14:35:20;4.32;;;2.80;;
31906;SDS011;18455;50.858;13.662;2023-06-14T14:40:20;6.68;;;2.55;;
31906;SDS011;18455;50.858;13.662;2023-06-14T14:45:21;4.72;;;2.47;;
31906;SDS011;18455;50.858;13.662;2023-06-14T14:50:21;4.57;;;2.72;;
31906;SDS011;18455;50.858;13.662;2023-06-14T14:55:22;4.60;;;3.20;;
31906;SDS011;18455;50.858;13.662;2023-06-14T15:00:22;7.88;;;3.15;;
31906;SDS011;18455;50.858;13.662;2023-06-14T15:05:22;5.45;;;2.97;;
31906;SDS011;18455;50.858;13.662;2023-06-14T15:10:23;3.73;;;2.83;;
31906;SDS011;18455;50.858;13.662;2023-06-14T15:15:33;5.05;;;2.90;;
31906;SDS011;18455;50.858;13.662;2023-06-14T15:21:56;4.35;;;3.00;;
31906;SDS011;18455;50.858;13.662;2023-06-14T15:26:57;2.60;;;2.40;;
31906;SDS011;18455;50.858;13.662;2023-06-14T15:31:57;5.47;;;2.87;;
31906;SDS011;18455;50.858;13.662;2023-06-14T15:36:58;2.95;;;2.50;;
31906;SDS011;18455;50.858;13.662;2023-06-14T15:41:58;3.67;;;2.60;;
31906;SDS011;18455;50.858;13.662;2023-06-14T15:46:59;5.50;;;3.17;;
31906;SDS011;18455;50.858;13.662;2023-06-14T15:51:59;8.88;;;3.00;;
31906;SDS011;18455;50.858;13.662;2023-06-14T15:57:01;4.85;;;3.22;;
31906;SDS011;18455;50.858;13.662;2023-06-14T16:02:01;12.93;;;3.10;;
31906;SDS011;18455;50.858;13.662;2023-06-14T16:07:01;6.78;;;3.08;;
31906;SDS011;18455;50.858;13.662;2023-06-14T16:12:02;3.50;;;3.10;;
31906;SDS011;18455;50.858;13.662;2023-06-14T16:17:02;5.05;;;3.38;;
31906;SDS011;18455;50.858;13.662;2023-06-14T16:22:03;4.38;;;3.50;;
31906;SDS011;18455;50.858;13.662;2023-06-14T16:27:04;7.68;;;3.78;;
31906;SDS011;18455;50.858;13.662;2023-06-14T16:32:06;4.35;;;3.50;;
31906;SDS011;18455;50.858;13.662;2023-06-14T16:37:07;4.68;;;3.22;;
31906;SDS011;18455;50.858;13.662;2023-06-14T16:42:08;5.47;;;3.25;;
31906;SDS011;18455;50.858;13.662;2023-06-14T16:47:08;4.03;;;3.63;;
31906;SDS011;18455;50.858;13.662;2023-06-14T16:52:10;3.67;;;3.30;;
31906;SDS011;18455;50.858;13.662;2023-06-14T16:57:10;3.22;;;2.92;;
31906;SDS011;18455;50.858;13.662;2023-06-14T17:02:11;5.20;;;3.55;;
31906;SDS011;18455;50.858;13.662;2023-06-14T17:07:12;5.15;;;2.85;;
31906;SDS011;18455;50.858;13.662;2023-06-14T17:12:12;3.80;;;3.40;;
31906;SDS011;18455;50.858;13.662;2023-06-14T17:17:12;4.85;;;3.40;;
31906;SDS011;18455;50.858;13.662;2023-06-14T17:22:13;4.13;;;3.50;;
31906;SDS011;18455;50.858;13.662;2023-06-14T17:27:13;3.67;;;3.38;;
31906;SDS011;18455;50.858;13.662;2023-06-14T17:32:15;4.80;;;3.90;;
31906;SDS011;18455;50.858;13.662;2023-06-14T17:37:15;5.45;;;3.88;;
31906;SDS011;18455;50.858;13.662;2023-06-14T17:42:16;4.43;;;3.70;;
31906;SDS011;18455;50.858;13.662;2023-06-14T17:47:16;5.00;;;4.40;;
31906;SDS011;18455;50.858;13.662;2023-06-14T17:52:17;6.63;;;4.35;;
31906;SDS011;18455;50.858;13.662;2023-06-14T17:57:17;5.15;;;4.65;;
31906;SDS011;18455;50.858;13.662;2023-06-14T18:02:18;5.57;;;5.00;;
31906;SDS011;18455;50.858;13.662;2023-06-14T18:07:18;5.30;;;4.80;;
31906;SDS011;18455;50.858;13.662;2023-06-14T18:12:19;6.80;;;5.60;;
31906;SDS011;18455;50.858;13.662;2023-06-14T18:17:20;5.47;;;4.97;;
31906;SDS011;18455;50.858;13.662;2023-06-14T18:22:20;7.45;;;5.53;;
31906;SDS011;18455;50.858;13.662;2023-06-14T18:27:21;6.57;;;5.68;;
31906;SDS011;18455;50.858;13.662;2023-06-14T18:32:21;6.57;;;4.80;;
31906;SDS011;18455;50.858;13.662;2023-06-14T18:37:22;6.25;;;5.65;;
31906;SDS011;18455;50.858;13.662;2023-06-14T18:42:22;6.50;;;5.80;;
31906;SDS011;18455;50.858;13.662;2023-06-14T18:47:23;7.10;;;6.40;;
31906;SDS011;18455;50.858;13.662;2023-06-14T18:52:23;10.95;;;7.03;;
31906;SDS011;18455;50.858;13.662;2023-06-14T18:57:24;10.32;;;7.10;;
31906;SDS011;18455;50.858;13.662;2023-06-14T19:02:25;10.15;;;7.95;;
31906;SDS011;18455;50.858;13.662;2023-06-14T19:07:25;14.50;;;12.55;;
31906;SDS011;18455;50.858;13.662;2023-06-14T19:12:26;11.35;;;7.70;;
31906;SDS011;18455;50.858;13.662;2023-06-14T19:17:26;11.32;;;7.32;;
31906;SDS011;18455;50.858;13.662;2023-06-14T19:22:27;9.20;;;6.70;;
31906;SDS011;18455;50.858;13.662;2023-06-14T19:27:27;14.65;;;7.57;;
31906;SDS011;18455;50.858;13.662;2023-06-14T19:32:27;10.85;;;7.95;;
31906;SDS011;18455;50.858;13.662;2023-06-14T19:37:28;10.48;;;7.20;;
31906;SDS011;18455;50.858;13.662;2023-06-14T19:42:28;9.45;;;7.85;;
31906;SDS011;18455;50.858;13.662;2023-06-14T19:47:28;12.45;;;8.80;;
31906;SDS011;18455;50.858;13.662;2023-06-14T19:52:29;11.55;;;8.02;;
31906;SDS011;18455;50.858;13.662;2023-06-14T19:57:29;11.25;;;8.05;;
31906;SDS011;18455;50.858;13.662;2023-06-14T20:02:30;13.07;;;9.27;;
31906;SDS011;18455;50.858;13.662;2023-06-14T20:07:30;10.05;;;7.80;;
31906;SDS011;18455;50.858;13.662;2023-06-14T20:12:32;11.00;;;7.95;;
31906;SDS011;18455;50.858;13.662;2023-06-14T20:17:32;10.65;;;8.10;;
31906;SDS011;18455;50.858;13.662;2023-06-14T20:22:32;10.23;;;8.53;;
31906;SDS011;18455;50.858;13.662;2023-06-14T20:27:37;14.80;;;8.77;;
31906;SDS011;18455;50.858;13.662;2023-06-14T20:32:37;8.73;;;7.75;;
31906;SDS011;18455;50.858;13.662;2023-06-14T20:37:38;11.20;;;7.90;;
31906;SDS011;18455;50.858;13.662;2023-06-14T20:42:38;10.13;;;8.20;;
31906;SDS011;18455;50.858;13.662;2023-06-14T20:47:39;9.17;;;8.00;;
31906;SDS011;18455;50.858;13.662;2023-06-14T20:52:40;12.07;;;7.13;;
31906;SDS011;18455;50.858;13.662;2023-06-14T20:57:40;11.07;;;7.87;;
31906;SDS011;18455;50.858;13.662;2023-06-14T21:02:41;9.70;;;8.40;;
31906;SDS011;18455;50.858;13.662;2023-06-14T21:07:41;10.93;;;8.00;;
31906;SDS011;18455;50.858;13.662;2023-06-14T21:12:42;10.53;;;8.03;;
31906;SDS011;18455;50.858;13.662;2023-06-14T21:17:42;13.00;;;8.60;;
31906;SDS011;18455;50.858;13.662;2023-06-14T21:22:43;9.77;;;7.57;;
31906;SDS011;18455;50.858;13.662;2023-06-14T21:27:43;9.97;;;7.83;;
31906;SDS011;18455;50.858;13.662;2023-06-14T21:32:44;10.07;;;8.10;;
31906;SDS011;18455;50.858;13.662;2023-06-14T21:37:44;10.50;;;7.63;;
31906;SDS011;18455;50.858;13.662;2023-06-14T21:42:44;11.03;;;8.17;;
31906;SDS011;18455;50.858;13.662;2023-06-14T21:47:45;10.93;;;8.30;;
31906;SDS011;18455;50.858;13.662;2023-06-14T21:52:46;13.53;;;8.50;;
31906;SDS011;18455;50.858;13.662;2023-06-14T21:57:46;11.00;;;8.20;;
31906;SDS011;18455;50.858;13.662;2023-06-14T22:02:46;12.67;;;8.43;;
31906;SDS011;18455;50.858;13.662;2023-06-14T22:07:47;12.67;;;8.30;;
31906;SDS011;18455;50.858;13.662;2023-06-14T22:12:48;10.33;;;9.00;;
31906;SDS011;18455;50.858;13.662;2023-06-14T22:17:49;9.43;;;7.50;;
31906;SDS011;18455;50.858;13.662;2023-06-14T22:22:51;10.43;;;8.50;;
31906;SDS011;18455;50.858;13.662;2023-06-14T22:27:52;12.87;;;8.00;;
31906;SDS011;18455;50.858;13.662;2023-06-14T22:32:52;10.00;;;8.20;;
31906;SDS011;18455;50.858;13.662;2023-06-14T22:37:53;11.13;;;8.43;;
31906;SDS011;18455;50.858;13.662;2023-06-14T22:42:53;10.57;;;8.10;;
31906;SDS011;18455;50.858;13.662;2023-06-14T22:47:57;8.67;;;7.03;;
31906;SDS011;18455;50.858;13.662;2023-06-14T22:52:58;10.20;;;7.50;;
31906;SDS011;18455;50.858;13.662;2023-06-14T22:58:02;11.13;;;7.53;;
31906;SDS011;18455;50.858;13.662;2023-06-14T23:03:03;10.47;;;7.30;;
31906;SDS011;18455;50.858;13.662;2023-06-14T23:08:03;9.63;;;7.57;;
31906;SDS011;18455;50.858;13.662;2023-06-14T23:13:04;10.60;;;7.60;;
31906;SDS011;18455;50.858;13.662;2023-06-14T23:18:04;10.00;;;8.10;;
31906;SDS011;18455;50.858;13.662;2023-06-14T23:23:05;10.60;;;7.37;;
31906;SDS011;18455;50.858;13.662;2023-06-14T23:28:05;8.77;;;6.83;;
31906;SDS011;18455;50.858;13.662;2023-06-14T23:33:09;10.57;;;6.60;;
31906;SDS011;18455;50.858;13.662;2023-06-14T23:38:10;9.37;;;6.67;;
31906;SDS011;18455;50.858;13.662;2023-06-14T23:43:12;9.57;;;7.07;;
31906;SDS011;18455;50.858;13.662;2023-06-14T23:48:14;9.53;;;6.27;;
31906;SDS011;18455;50.858;13.662;2023-06-14T23:53:14;11.90;;;6.77;;
31906;SDS011;18455;50.858;13.662;2023-06-14T23:58:15;8.97;;;7.63;;
